Time;durP1;ratioP1;P1;durP2;ratioP2;P2;SDS_P1;SDS_P2;PMS_P1;PMS_P2;Temp;Humidity;BMP_temperature;BMP_pressure;BME280_temperature;BME280_humidity;BME280_pressure;Samples;Min_cycle;Max_cycle;Signal;HPM_P1;HPM_P2
2024/03/29 00:00:46;;;;;;;1.55;0.90;;;3.60;98.70;;;;;;5072109;28;20343;-63
2024/03/29 00:03:11;;;;;;;0.67;0.50;;;3.30;98.40;;;;;;5072469;28;20590;-63
2024/03/29 00:05:37;;;;;;;8.87;0.80;;;3.10;99.90;;;;;;5071956;28;20305;-63
2024/03/29 00:08:04;;;;;;;1.05;0.95;;;3.10;98.90;;;;;;5071851;28;20172;-63
2024/03/29 00:10:29;;;;;;;0.50;0.40;;;3.40;99.20;;;;;;5071746;28;20590;-63
2024/03/29 00:12:55;;;;;;;0.60;0.57;;;3.30;99.40;;;;;;5071919;28;20279;-63
2024/03/29 00:15:21;;;;;;;1.53;1.43;;;4.10;99.40;;;;;;5071861;28;20180;-63
2024/03/29 00:17:46;;;;;;;0.50;0.50;;;3.80;99.20;;;;;;5071351;28;20201;-63
2024/03/29 00:20:12;;;;;;;0.63;0.63;;;3.70;99.10;;;;;;5071502;28;20741;-63
2024/03/29 00:22:38;;;;;;;1.47;0.90;;;3.30;98.80;;;;;;5071768;28;20204;-63
2024/03/29 00:25:04;;;;;;;0.60;0.60;;;3.60;99.10;;;;;;5072016;28;20169;-63
2024/03/29 00:27:30;;;;;;;0.43;0.40;;;3.60;99.10;;;;;;5071687;28;20200;-63
2024/03/29 00:29:56;;;;;;;1.60;0.88;;;3.70;99.10;;;;;;5071322;28;20474;-63
2024/03/29 00:32:22;;;;;;;0.73;0.57;;;3.70;99.00;;;;;;5071766;28;20256;-63
2024/03/29 00:34:50;;;;;;;0.63;0.63;;;3.70;99.00;;;;;;5072124;28;20227;-62
2024/03/29 00:37:15;;;;;;;1.25;1.15;;;3.80;98.90;;;;;;5070196;28;20702;-63
2024/03/29 00:39:44;;;;;;;0.50;0.50;;;4.10;99.00;;;;;;5071355;28;20181;-63
2024/03/29 00:42:12;;;;;;;0.90;0.90;;;3.90;98.80;;;;;;5071668;28;20201;-63
2024/03/29 00:44:40;;;;;;;0.80;0.60;;;3.90;98.60;;;;;;5071640;28;20647;-63
2024/03/29 00:47:06;;;;;;;1.50;1.00;;;3.90;98.90;;;;;;5071524;28;20189;-62
2024/03/29 00:49:32;;;;;;;0.80;0.80;;;3.70;99.10;;;;;;5071189;28;20720;-62
2024/03/29 00:51:58;;;;;;;4.20;1.07;;;3.80;99.10;;;;;;5071475;28;20170;-62
2024/03/29 00:54:23;;;;;;;1.03;0.87;;;3.90;98.80;;;;;;5071677;28;20169;-62
2024/03/29 00:56:50;;;;;;;1.93;0.80;;;3.60;98.60;;;;;;5071757;28;20431;-62
2024/03/29 00:59:16;;;;;;;0.40;0.40;;;3.60;98.80;;;;;;5071665;28;20640;-62
2024/03/29 01:01:41;;;;;;;0.93;0.85;;;3.70;98.90;;;;;;5071742;28;20643;-62
2024/03/29 01:04:07;;;;;;;1.70;0.77;;;4.00;99.00;;;;;;5071417;28;20170;-62
2024/03/29 01:06:33;;;;;;;0.50;0.50;;;4.10;99.30;;;;;;5071278;28;20432;-62
2024/03/29 01:08:59;;;;;;;0.50;0.50;;;4.10;99.30;;;;;;5071086;28;20908;-63
2024/03/29 01:11:25;;;;;;;0.80;0.50;;;4.00;99.00;;;;;;5071243;28;21006;-63
2024/03/29 01:13:51;;;;;;;2.10;0.60;;;4.00;99.00;;;;;;5071255;28;20201;-62
2024/03/29 01:16:17;;;;;;;3.58;1.00;;;4.30;99.10;;;;;;5071246;28;20189;-62
2024/03/29 01:18:43;;;;;;;0.50;0.40;;;3.90;98.80;;;;;;5071094;28;20180;-62
2024/03/29 01:21:09;;;;;;;0.95;0.60;;;4.30;98.80;;;;;;5071087;28;20216;-62
2024/03/29 01:23:35;;;;;;;0.67;0.50;;;4.10;98.30;;;;;;5071254;28;20599;-62
2024/03/29 01:26:01;;;;;;;0.80;0.80;;;4.10;98.30;;;;;;5071110;28;20200;-62
2024/03/29 01:28:26;;;;;;;0.90;0.90;;;4.00;98.20;;;;;;5070973;28;20407;-62
2024/03/29 01:30:55;;;;;;;0.60;0.60;;;4.10;98.20;;;;;;5073182;28;20512;-62
2024/03/29 01:33:21;;;;;;;0.40;0.40;;;4.20;98.20;;;;;;5074853;28;20174;-63
2024/03/29 01:35:47;;;;;;;1.10;1.00;;;4.30;98.00;;;;;;5074587;28;20201;-61
2024/03/29 01:38:14;;;;;;;1.80;0.82;;;4.20;97.60;;;;;;5074787;28;20165;-63
2024/03/29 01:40:40;;;;;;;0.50;0.50;;;4.70;97.90;;;;;;5074548;28;20181;-62
2024/03/29 01:43:07;;;;;;;1.20;0.90;;;4.40;97.90;;;;;;5074739;28;20184;-62
2024/03/29 01:45:35;;;;;;;0.70;0.70;;;4.10;99.90;;;;;;5075113;28;20178;-62
2024/03/29 01:48:01;;;;;;;0.60;0.60;;;4.10;97.70;;;;;;5074447;28;20554;-62
2024/03/29 01:50:27;;;;;;;0.70;0.70;;;4.00;97.90;;;;;;5074289;28;20197;-62
2024/03/29 01:52:53;;;;;;;1.33;0.60;;;4.20;98.00;;;;;;5074537;28;20533;-62
2024/03/29 01:55:19;;;;;;;2.03;0.70;;;4.40;97.70;;;;;;5074749;28;20404;-62
2024/03/29 01:57:44;;;;;;;5.77;1.00;;;4.10;97.50;;;;;;5074208;28;20693;-62
2024/03/29 02:00:10;;;;;;;0.53;0.53;;;4.30;97.60;;;;;;5074102;28;20223;-63
2024/03/29 02:02:37;;;;;;;1.25;1.15;;;4.10;97.60;;;;;;5074242;28;20170;-63
2024/03/29 02:05:04;;;;;;;0.90;0.90;;;3.90;97.70;;;;;;5074272;28;20174;-62
2024/03/29 02:07:30;;;;;;;0.63;0.63;;;3.90;97.90;;;;;;5074287;28;20284;-62
2024/03/29 02:09:56;;;;;;;0.70;0.70;;;4.10;98.00;;;;;;5073937;28;20304;-63
2024/03/29 02:12:22;;;;;;;0.80;0.63;;;3.90;98.00;;;;;;5074176;28;20701;-63
2024/03/29 02:14:47;;;;;;;0.47;0.47;;;3.90;97.90;;;;;;5074126;28;20261;-63
2024/03/29 02:17:13;;;;;;;1.37;0.50;;;4.20;97.90;;;;;;5074383;28;20215;-63
2024/03/29 02:19:38;;;;;;;4.37;0.87;;;4.20;97.90;;;;;;5073779;28;20222;-63
2024/03/29 02:22:07;;;;;;;1.33;0.73;;;4.10;97.70;;;;;;5074075;28;20256;-63
2024/03/29 02:24:33;;;;;;;0.95;0.80;;;4.30;97.80;;;;;;5073984;28;20162;-63
2024/03/29 02:26:59;;;;;;;0.45;0.45;;;3.90;97.80;;;;;;5073785;28;20674;-63
2024/03/29 02:29:25;;;;;;;0.50;0.50;;;4.20;97.70;;;;;;5073483;28;20219;-63
2024/03/29 02:31:51;;;;;;;0.50;0.47;;;4.30;97.90;;;;;;5073721;28;20728;-63
2024/03/29 02:34:16;;;;;;;1.07;0.50;;;4.20;97.90;;;;;;5073734;28;20169;-63
2024/03/29 02:36:43;;;;;;;0.40;0.40;;;4.20;97.80;;;;;;5073629;28;20209;-63
2024/03/29 02:39:09;;;;;;;0.55;0.55;;;4.30;98.00;;;;;;5073482;28;20663;-62
2024/03/29 02:41:35;;;;;;;0.70;0.70;;;4.40;97.90;;;;;;5073269;28;20208;-62
2024/03/29 02:44:01;;;;;;;0.97;0.70;;;4.40;97.70;;;;;;5073677;28;20169;-62
2024/03/29 02:46:27;;;;;;;0.70;0.70;;;4.50;97.70;;;;;;5073302;28;20725;-63
2024/03/29 02:48:52;;;;;;;1.20;1.07;;;4.60;97.70;;;;;;5073279;28;20177;-62
2024/03/29 02:51:18;;;;;;;1.07;0.70;;;4.80;97.40;;;;;;5073309;28;20709;-63
2024/03/29 02:53:44;;;;;;;0.63;0.63;;;4.90;96.90;;;;;;5073538;28;20506;-62
2024/03/29 02:56:10;;;;;;;0.60;0.60;;;4.80;96.50;;;;;;5073297;28;20262;-62
2024/03/29 02:58:35;;;;;;;0.60;0.60;;;4.80;96.60;;;;;;5073236;28;20169;-63
2024/03/29 03:01:10;;;;;;;1.10;0.57;;;4.60;96.40;;;;;;5073030;28;20177;-62
2024/03/29 03:03:36;;;;;;;0.40;0.40;;;4.60;96.90;;;;;;5073264;28;20219;-62
2024/03/29 03:06:02;;;;;;;0.45;0.45;;;3.90;97.00;;;;;;5073078;28;20205;-62
2024/03/29 03:11:13;;;;;;;1.80;0.88;;;4.90;97.30;;;;;;5072888;28;20624;-62
2024/03/29 03:13:39;;;;;;;0.60;0.50;;;4.90;96.90;;;;;;5072989;28;20838;-62
2024/03/29 03:16:05;;;;;;;0.40;0.40;;;4.90;96.70;;;;;;5072860;28;20297;-62
2024/03/29 03:18:31;;;;;;;1.00;0.50;;;4.90;96.90;;;;;;5072719;28;20294;-62
2024/03/29 03:20:57;;;;;;;0.97;0.70;;;5.10;96.90;;;;;;5072726;28;20526;-62
2024/03/29 03:23:24;;;;;;;0.40;0.40;;;5.20;96.70;;;;;;5072854;28;20532;-62
2024/03/29 03:25:57;;;;;;;1.63;0.70;;;5.10;96.70;;;;;;5072584;28;20716;-62
2024/03/29 03:28:23;;;;;;;1.50;0.65;;;5.20;96.60;;;;;;5072625;28;20223;-62
2024/03/29 03:30:49;;;;;;;0.50;0.50;;;5.20;96.10;;;;;;5072562;28;20217;-63
2024/03/29 03:33:15;;;;;;;0.60;0.60;;;5.20;96.30;;;;;;5071343;28;20792;-62
2024/03/29 03:35:42;;;;;;;2.93;0.73;;;5.70;99.90;;;;;;5072492;28;20253;-62
2024/03/29 03:38:08;;;;;;;0.60;0.60;;;5.40;96.40;;;;;;5072669;28;20185;-62
2024/03/29 03:40:34;;;;;;;0.68;0.60;;;5.40;96.50;;;;;;5072190;28;20174;-62
2024/03/29 03:43:04;;;;;;;1.00;0.50;;;5.50;95.90;;;;;;5072452;28;20213;-63
2024/03/29 03:45:40;;;;;;;1.45;0.88;;;5.80;99.90;;;;;;5072296;28;20573;-62
2024/03/29 03:48:08;;;;;;;0.75;0.50;;;5.70;95.60;;;;;;5072406;28;20228;-62
2024/03/29 03:50:33;;;;;;;0.60;0.60;;;5.80;95.60;;;;;;5071473;28;20208;-63
2024/03/29 03:52:59;;;;;;;0.77;0.53;;;5.80;95.80;;;;;;5071599;28;20169;-62
2024/03/29 03:55:25;;;;;;;0.40;0.40;;;5.80;95.70;;;;;;5071427;28;20242;-62
2024/03/29 03:57:51;;;;;;;0.60;0.60;;;5.90;95.60;;;;;;5071923;28;20481;-63
2024/03/29 04:00:20;;;;;;;2.47;0.60;;;5.90;95.70;;;;;;5071724;28;20699;-63
2024/03/29 04:02:50;;;;;;;0.65;0.50;;;5.90;95.50;;;;;;5072078;28;20418;-62
2024/03/29 04:05:19;;;;;;;0.60;0.60;;;5.90;95.70;;;;;;5071916;28;20193;-63
2024/03/29 04:07:45;;;;;;;1.25;1.10;;;6.00;96.00;;;;;;5070580;28;20255;-63
2024/03/29 04:10:11;;;;;;;2.10;1.67;;;6.00;95.50;;;;;;5071701;28;20247;-63
2024/03/29 04:12:37;;;;;;;3.30;0.97;;;6.00;95.20;;;;;;5071952;28;20248;-63
2024/03/29 04:15:04;;;;;;;2.17;0.88;;;6.00;94.80;;;;;;5071889;28;20635;-63
2024/03/29 04:17:30;;;;;;;1.55;0.80;;;5.90;95.20;;;;;;5071952;28;20220;-63
2024/03/29 04:19:56;;;;;;;2.17;1.02;;;5.80;95.40;;;;;;5072193;28;20179;-62
2024/03/29 04:22:23;;;;;;;1.45;0.80;;;5.90;95.40;;;;;;5072053;28;20649;-62
2024/03/29 04:24:48;;;;;;;2.17;0.75;;;5.90;95.30;;;;;;5071856;28;20185;-63
2024/03/29 04:27:14;;;;;;;1.07;0.97;;;6.00;95.80;;;;;;5071698;28;20189;-62
2024/03/29 04:29:39;;;;;;;2.03;1.67;;;6.00;95.40;;;;;;5071804;28;20215;-63
2024/03/29 04:32:06;;;;;;;1.30;1.00;;;6.10;95.40;;;;;;5071746;28;20170;-63
2024/03/29 04:34:31;;;;;;;0.93;0.85;;;6.10;95.20;;;;;;5071584;28;20635;-63
2024/03/29 04:36:57;;;;;;;0.50;0.50;;;6.20;94.70;;;;;;5071115;28;20211;-62
2024/03/29 04:39:23;;;;;;;0.87;0.70;;;6.30;94.50;;;;;;5065239;28;20171;-62
2024/03/29 04:41:48;;;;;;;0.70;0.60;;;6.40;94.40;;;;;;5052076;28;20177;-62
2024/03/29 04:44:24;;;;;;;0.90;0.90;;;6.50;94.40;;;;;;5051468;28;20176;-63
2024/03/29 04:46:50;;;;;;;0.93;0.80;;;6.60;94.40;;;;;;5051529;28;20190;-63
2024/03/29 04:49:22;;;;;;;0.80;0.80;;;6.60;94.40;;;;;;5051264;28;20656;-62
2024/03/29 04:51:50;;;;;;;0.60;0.52;;;6.60;94.60;;;;;;5051470;28;20233;-63
2024/03/29 04:54:17;;;;;;;0.60;0.60;;;6.70;94.40;;;;;;5051518;28;20181;-62
2024/03/29 04:56:43;;;;;;;0.57;0.50;;;6.70;94.50;;;;;;5051668;28;20195;-62
2024/03/29 04:59:10;;;;;;;0.53;0.50;;;6.70;94.70;;;;;;5051076;28;20185;-62
2024/03/29 05:01:36;;;;;;;0.50;0.50;;;6.70;94.90;;;;;;5051383;28;20402;-62
2024/03/29 05:04:02;;;;;;;0.60;0.60;;;6.70;95.40;;;;;;5052321;28;20191;-62
2024/03/29 05:06:29;;;;;;;0.40;0.40;;;6.80;95.40;;;;;;5055230;28;20196;-63
2024/03/29 05:08:55;;;;;;;0.50;0.50;;;6.80;95.20;;;;;;5055026;28;20830;-63
2024/03/29 05:11:21;;;;;;;1.97;0.60;;;6.90;95.30;;;;;;5055115;28;20246;-63
2024/03/29 05:13:47;;;;;;;0.50;0.50;;;6.90;95.20;;;;;;5055343;28;20418;-61
2024/03/29 05:16:12;;;;;;;0.95;0.95;;;6.90;95.30;;;;;;5055160;28;20195;-62
2024/03/29 05:18:38;;;;;;;0.50;0.50;;;6.90;95.50;;;;;;5055007;28;20174;-62
2024/03/29 05:21:04;;;;;;;0.40;0.40;;;7.00;95.70;;;;;;5054982;28;20180;-63
2024/03/29 05:23:30;;;;;;;0.40;0.40;;;6.90;95.50;;;;;;5055032;28;20189;-62
2024/03/29 05:25:56;;;;;;;0.77;0.77;;;6.90;95.40;;;;;;5054926;28;20439;-63
2024/03/29 05:28:21;;;;;;;0.77;0.70;;;6.90;95.50;;;;;;5054958;28;20223;-63
2024/03/29 05:30:47;;;;;;;0.50;0.50;;;7.00;95.60;;;;;;5054938;28;20652;-63
2024/03/29 05:33:13;;;;;;;0.40;0.40;;;7.00;95.70;;;;;;5055040;28;20646;-63
2024/03/29 05:35:38;;;;;;;1.07;0.83;;;7.20;99.90;;;;;;5054662;28;20187;-63
2024/03/29 05:38:04;;;;;;;0.50;0.50;;;7.00;96.60;;;;;;5054778;28;20696;-63
2024/03/29 05:40:30;;;;;;;0.60;0.60;;;7.00;97.00;;;;;;5054466;28;20211;-63
2024/03/29 05:42:55;;;;;;;0.47;0.47;;;7.10;97.50;;;;;;5054794;28;20534;-63
2024/03/29 05:45:28;;;;;;;1.80;0.67;;;7.10;97.40;;;;;;5054735;28;20642;-63
2024/03/29 05:47:55;;;;;;;1.40;0.50;;;7.10;97.30;;;;;;5054739;28;20190;-62
2024/03/29 05:50:22;;;;;;;1.02;0.60;;;7.20;97.10;;;;;;5054295;28;20205;-63
2024/03/29 05:52:48;;;;;;;0.50;0.50;;;7.30;97.20;;;;;;5054446;28;20177;-63
2024/03/29 05:55:14;;;;;;;0.50;0.50;;;7.30;97.30;;;;;;5054754;28;20212;-63
2024/03/29 05:57:41;;;;;;;2.40;1.33;;;7.40;97.50;;;;;;5054247;28;20800;-62
2024/03/29 06:00:09;;;;;;;0.85;0.52;;;7.50;97.50;;;;;;5054233;28;20527;-63
2024/03/29 06:02:34;;;;;;;0.98;0.95;;;7.60;97.60;;;;;;5054463;28;20603;-63
2024/03/29 06:05:00;;;;;;;3.60;1.30;;;7.50;97.70;;;;;;5054393;28;20238;-63
2024/03/29 06:07:28;;;;;;;1.10;0.70;;;7.30;97.70;;;;;;5054017;28;20833;-63
2024/03/29 06:09:54;;;;;;;0.77;0.55;;;7.20;97.90;;;;;;5054080;28;20208;-63
2024/03/29 06:12:19;;;;;;;0.60;0.60;;;7.30;97.90;;;;;;5054135;28;20173;-63
2024/03/29 06:17:29;;;;;;;0.47;0.47;;;7.40;97.60;;;;;;5053516;28;20200;-62
2024/03/29 06:20:00;;;;;;;1.50;0.80;;;7.30;97.60;;;;;;5053690;28;20535;-63
2024/03/29 06:22:29;;;;;;;0.98;0.73;;;7.30;97.40;;;;;;5054247;28;20183;-63
2024/03/29 06:25:04;;;;;;;0.93;0.80;;;7.50;97.60;;;;;;5054005;28;20672;-62
2024/03/29 06:27:33;;;;;;;2.13;0.77;;;7.50;96.70;;;;;;5053889;28;20286;-63
2024/03/29 06:30:00;;;;;;;0.75;0.75;;;7.50;96.40;;;;;;5053565;28;20237;-63
2024/03/29 06:32:25;;;;;;;0.70;0.70;;;7.60;96.40;;;;;;5053728;28;20169;-63
2024/03/29 06:34:51;;;;;;;1.80;0.90;;;7.60;96.40;;;;;;5053759;28;20184;-62
2024/03/29 06:37:17;;;;;;;1.47;0.93;;;7.60;96.50;;;;;;5053597;28;20210;-63
2024/03/29 06:39:43;;;;;;;3.13;1.90;;;7.60;96.60;;;;;;5053579;28;20203;-63
2024/03/29 06:42:09;;;;;;;0.93;0.80;;;7.60;97.20;;;;;;5053708;28;20666;-63
2024/03/29 06:44:35;;;;;;;1.67;0.90;;;7.60;97.20;;;;;;5053589;28;20260;-62
2024/03/29 06:47:01;;;;;;;1.25;0.75;;;7.60;96.80;;;;;;5053380;28;20520;-63
2024/03/29 06:49:26;;;;;;;1.07;1.00;;;7.60;96.70;;;;;;5053167;28;20615;-63
2024/03/29 06:51:53;;;;;;;1.67;1.13;;;7.70;96.90;;;;;;5053545;28;20205;-63
2024/03/29 06:54:22;;;;;;;1.02;0.98;;;7.80;97.10;;;;;;5053382;28;20420;-62
2024/03/29 06:56:48;;;;;;;0.70;0.70;;;7.90;97.00;;;;;;5053363;28;20193;-62
2024/03/29 06:59:15;;;;;;;0.65;0.65;;;8.00;97.10;;;;;;5053021;28;20204;-63
2024/03/29 07:01:41;;;;;;;0.50;0.50;;;8.00;97.30;;;;;;5053161;28;20173;-63
2024/03/29 07:04:06;;;;;;;1.37;1.27;;;8.00;97.50;;;;;;5053354;28;20560;-63
2024/03/29 07:06:32;;;;;;;1.83;1.10;;;8.00;97.70;;;;;;5053242;28;20460;-63
2024/03/29 07:08:58;;;;;;;0.90;0.63;;;8.20;97.30;;;;;;5053388;28;20253;-63
2024/03/29 07:11:23;;;;;;;0.70;0.60;;;8.30;96.90;;;;;;5047765;28;20206;-63
2024/03/29 07:13:49;;;;;;;0.50;0.50;;;8.30;97.10;;;;;;5053457;28;20205;-62
2024/03/29 07:16:14;;;;;;;0.50;0.50;;;8.40;97.20;;;;;;5052775;28;20209;-63
2024/03/29 07:18:40;;;;;;;0.50;0.50;;;8.50;97.50;;;;;;5052760;28;20206;-63
2024/03/29 07:21:06;;;;;;;0.63;0.57;;;8.50;97.70;;;;;;5052939;28;20659;-63
2024/03/29 07:23:31;;;;;;;2.10;0.90;;;8.40;98.10;;;;;;5053203;28;20574;-63
2024/03/29 07:26:02;;;;;;;1.80;0.57;;;8.40;98.20;;;;;;5052774;28;20186;-63
2024/03/29 07:28:28;;;;;;;0.40;0.40;;;8.50;98.40;;;;;;5051653;28;20662;-62
2024/03/29 07:30:54;;;;;;;0.55;0.55;;;8.40;98.50;;;;;;5052446;28;20582;-63
2024/03/29 07:33:23;;;;;;;1.03;0.63;;;8.50;98.60;;;;;;5052886;28;20163;-63
2024/03/29 07:35:49;;;;;;;0.88;0.70;;;8.50;98.70;;;;;;5052481;28;20452;-62
2024/03/29 07:38:20;;;;;;;2.00;1.90;;;8.50;98.90;;;;;;5052693;28;20173;-63
2024/03/29 07:40:49;;;;;;;2.05;1.65;;;8.30;99.90;;;;;;5052512;28;20561;-62
2024/03/29 07:43:15;;;;;;;1.73;1.42;;;8.40;98.80;;;;;;5052915;28;20181;-62
2024/03/29 07:45:44;;;;;;;1.37;1.30;;;8.40;99.90;;;;;;5052662;28;20188;-63
2024/03/29 07:48:13;;;;;;;0.70;0.70;;;8.60;99.40;;;;;;5052203;28;20409;-63
2024/03/29 07:50:39;;;;;;;0.80;0.80;;;8.60;99.20;;;;;;5052148;28;20293;-62
2024/03/29 07:53:05;;;;;;;1.42;1.05;;;8.60;99.50;;;;;;5052395;28;20243;-62
2024/03/29 07:55:31;;;;;;;0.63;0.63;;;8.30;99.90;;;;;;5052144;28;20202;-63
2024/03/29 07:57:56;;;;;;;3.50;1.10;;;8.70;99.50;;;;;;5052109;28;20244;-63
2024/03/29 08:00:22;;;;;;;1.03;0.70;;;8.80;99.00;;;;;;5052002;28;20644;-63
2024/03/29 08:02:49;;;;;;;0.70;0.70;;;8.70;98.70;;;;;;5052117;28;20600;-63
2024/03/29 08:05:14;;;;;;;0.50;0.50;;;8.70;98.80;;;;;;5052068;28;20405;-62
2024/03/29 08:07:40;;;;;;;0.60;0.57;;;8.80;99.00;;;;;;5051900;28;20194;-63
2024/03/29 08:10:06;;;;;;;2.00;1.90;;;9.00;99.90;;;;;;5051809;28;20273;-63
2024/03/29 08:12:32;;;;;;;0.90;0.90;;;9.10;99.90;;;;;;5051922;28;20171;-63
2024/03/29 08:14:58;;;;;;;0.70;0.70;;;9.10;99.90;;;;;;5052213;28;20228;-63
2024/03/29 08:17:24;;;;;;;1.20;1.20;;;9.00;99.90;;;;;;5051786;28;20209;-63
2024/03/29 08:19:50;;;;;;;1.75;1.35;;;9.20;99.90;;;;;;5051487;28;20174;-63
2024/03/29 08:22:16;;;;;;;1.17;1.13;;;8.90;99.90;;;;;;5052099;28;20175;-63
2024/03/29 08:24:42;;;;;;;6.60;0.83;;;9.10;99.90;;;;;;5051876;28;20174;-63
2024/03/29 08:27:09;;;;;;;2.45;0.75;;;9.10;99.90;;;;;;5051565;28;20470;-63
2024/03/29 08:29:34;;;;;;;1.23;0.80;;;9.20;99.90;;;;;;5051529;28;20199;-63
2024/03/29 08:32:00;;;;;;;0.90;0.90;;;9.20;99.90;;;;;;5052271;28;20170;-63
2024/03/29 08:34:27;;;;;;;1.60;1.50;;;9.20;99.90;;;;;;5051736;28;20170;-63
2024/03/29 08:36:54;;;;;;;2.97;0.98;;;9.30;98.90;;;;;;5051539;28;20565;-62
2024/03/29 08:39:19;;;;;;;1.05;1.05;;;9.60;99.90;;;;;;5051063;28;20181;-63
2024/03/29 08:41:45;;;;;;;0.93;0.93;;;9.30;99.40;;;;;;5067105;28;20174;-63
2024/03/29 08:44:12;;;;;;;1.80;0.83;;;9.20;99.90;;;;;;5071478;28;20669;-63
2024/03/29 08:46:37;;;;;;;1.08;0.68;;;9.40;99.90;;;;;;5071732;28;20383;-62
2024/03/29 08:49:03;;;;;;;0.90;0.90;;;9.60;99.10;;;;;;5071326;28;20178;-63
2024/03/29 08:51:29;;;;;;;4.30;2.00;;;10.50;99.90;;;;;;5071281;28;20205;-63
2024/03/29 08:53:57;;;;;;;2.33;1.92;;;10.50;99.90;;;;;;5071368;28;20723;-63
2024/03/29 08:56:23;;;;;;;4.63;1.98;;;10.50;96.60;;;;;;5071381;28;20743;-63
2024/03/29 08:58:49;;;;;;;4.00;1.87;;;10.70;95.40;;;;;;5070950;28;20181;-63
2024/03/29 09:01:15;;;;;;;2.27;1.80;;;10.70;95.80;;;;;;5071312;28;20773;-63
2024/03/29 09:03:41;;;;;;;1.50;1.20;;;10.80;95.70;;;;;;5071574;28;20201;-63
2024/03/29 09:06:06;;;;;;;1.40;1.30;;;11.00;95.90;;;;;;5071433;28;20463;-63
2024/03/29 09:08:32;;;;;;;2.17;1.47;;;11.30;96.10;;;;;;5071308;28;20184;-63
2024/03/29 09:10:58;;;;;;;2.73;1.93;;;11.30;95.90;;;;;;5071216;28;20288;-63
2024/03/29 09:13:24;;;;;;;1.43;1.33;;;11.30;94.70;;;;;;5071375;28;20188;-63
2024/03/29 09:15:50;;;;;;;3.40;2.20;;;11.20;94.70;;;;;;5071241;28;20428;-63
2024/03/29 09:18:26;;;;;;;1.77;1.67;;;11.30;95.10;;;;;;5071123;28;20235;-63
2024/03/29 09:20:59;;;;;;;2.30;1.90;;;11.50;95.10;;;;;;5071097;28;20876;-63
2024/03/29 09:23:28;;;;;;;3.53;1.33;;;11.90;94.60;;;;;;5070631;28;20427;-64
2024/03/29 09:25:57;;;;;;;1.60;1.07;;;12.30;93.00;;;;;;5071348;28;20459;-63
2024/03/29 09:28:24;;;;;;;2.33;1.17;;;12.50;92.40;;;;;;5070992;28;20510;-63
2024/03/29 09:30:50;;;;;;;2.00;1.47;;;12.80;92.70;;;;;;5071070;28;20454;-63
2024/03/29 09:33:16;;;;;;;1.80;1.50;;;12.90;91.70;;;;;;5071257;28;20410;-64
2024/03/29 09:35:41;;;;;;;1.40;1.30;;;12.70;99.90;;;;;;5070855;28;20411;-63
2024/03/29 09:38:07;;;;;;;2.03;1.80;;;13.00;91.40;;;;;;5071151;28;20168;-63
2024/03/29 09:40:34;;;;;;;2.20;1.67;;;13.00;91.80;;;;;;5070618;28;20170;-63
2024/03/29 09:43:03;;;;;;;2.63;1.47;;;13.20;92.30;;;;;;5070879;28;20184;-64
2024/03/29 09:45:36;;;;;;;1.50;1.40;;;14.00;99.90;;;;;;5071018;28;20901;-64
2024/03/29 09:48:03;;;;;;;2.60;1.50;;;13.70;91.40;;;;;;5070954;28;20408;-64
2024/03/29 09:50:35;;;;;;;1.43;1.33;;;13.80;91.20;;;;;;5070164;28;20481;-63
2024/03/29 09:53:00;;;;;;;2.20;2.07;;;13.80;91.30;;;;;;5074872;28;20881;-64
2024/03/29 09:55:28;;;;;;;1.90;1.40;;;13.80;91.10;;;;;;5075409;28;20439;-63
2024/03/29 09:57:54;;;;;;;1.63;1.53;;;13.70;90.80;;;;;;5074463;28;20658;-64
2024/03/29 10:00:20;;;;;;;1.70;1.40;;;13.70;91.00;;;;;;5074179;28;20435;-64
2024/03/29 10:02:49;;;;;;;2.40;2.20;;;13.90;90.70;;;;;;5074345;28;20458;-63
2024/03/29 10:05:15;;;;;;;2.20;1.43;;;14.00;90.70;;;;;;5074369;28;20497;-63
2024/03/29 10:07:42;;;;;;;1.63;1.53;;;14.10;90.90;;;;;;5074267;28;20444;-64
2024/03/29 10:10:08;;;;;;;1.70;1.33;;;14.20;90.70;;;;;;5074012;28;20461;-64
2024/03/29 10:12:34;;;;;;;2.73;1.53;;;14.30;90.00;;;;;;5074531;28;20926;-63
2024/03/29 10:15:10;;;;;;;2.50;1.40;;;14.40;91.00;;;;;;5072993;28;20417;-63
2024/03/29 10:17:38;;;;;;;1.20;1.10;;;14.60;90.60;;;;;;5074055;28;20241;-63
2024/03/29 10:20:04;;;;;;;0.87;0.87;;;14.80;89.60;;;;;;5073970;28;20416;-63
2024/03/29 10:22:46;;;;;;;1.17;1.07;;;15.00;87.00;;;;;;5074084;28;20422;-63
2024/03/29 10:25:14;;;;;;;1.60;1.30;;;15.20;85.00;;;;;;5074203;28;20789;-63
2024/03/29 10:27:40;;;;;;;0.90;0.70;;;15.30;82.20;;;;;;5073878;28;20431;-63
2024/03/29 10:30:10;;;;;;;1.47;1.30;;;15.40;83.10;;;;;;5073615;28;20804;-63
2024/03/29 10:32:42;;;;;;;1.20;1.10;;;15.60;80.50;;;;;;5074130;28;20444;-63
2024/03/29 10:35:08;;;;;;;1.23;1.10;;;15.70;79.60;;;;;;5073947;28;20953;-63
2024/03/29 10:37:38;;;;;;;3.33;1.70;;;15.80;81.20;;;;;;5073646;28;20451;-63
2024/03/29 10:40:09;;;;;;;3.83;1.37;;;15.90;81.80;;;;;;5073496;28;20419;-63
2024/03/29 10:42:40;;;;;;;1.27;1.17;;;16.10;81.80;;;;;;5073713;28;20414;-63
2024/03/29 10:45:09;;;;;;;1.37;1.20;;;16.30;78.60;;;;;;5073724;28;20427;-64
2024/03/29 10:47:36;;;;;;;0.90;0.90;;;16.40;75.90;;;;;;5073522;28;20431;-64
2024/03/29 10:50:05;;;;;;;1.57;1.10;;;16.50;76.50;;;;;;5073340;28;20452;-63
2024/03/29 10:52:32;;;;;;;1.00;1.00;;;16.70;76.70;;;;;;5073553;28;20419;-63
2024/03/29 10:54:57;;;;;;;2.50;1.50;;;17.00;71.70;;;;;;5073450;28;20443;-63
2024/03/29 10:57:25;;;;;;;2.67;1.33;;;17.20;70.40;;;;;;5073448;28;20463;-63
2024/03/29 11:00:06;;;;;;;5.20;2.03;;;17.50;68.20;;;;;;5073296;28;20192;-63
2024/03/29 11:03:09;;;;;;;0.80;0.80;;;17.80;66.10;;;;;;5073177;28;20413;-64
2024/03/29 11:05:37;;;;;;;1.27;1.13;;;18.00;76.70;;;;;;5073067;28;20774;-63
2024/03/29 11:08:05;;;;;;;2.30;1.70;;;18.20;55.90;;;;;;5073229;28;20408;-63
2024/03/29 11:10:43;;;;;;;2.30;1.40;;;18.40;58.70;;;;;;5072881;28;20538;-63
2024/03/29 11:13:23;;;;;;;2.50;1.87;;;18.20;57.10;;;;;;5073177;28;20443;-64
2024/03/29 11:15:50;;;;;;;0.90;0.60;;;18.00;56.90;;;;;;5072848;28;20840;-63
2024/03/29 11:18:18;;;;;;;0.70;0.60;;;17.90;54.80;;;;;;5073531;28;20436;-63
2024/03/29 11:20:51;;;;;;;0.73;0.70;;;17.70;54.30;;;;;;5072859;28;20412;-64
2024/03/29 11:23:19;;;;;;;1.20;0.83;;;17.40;54.30;;;;;;5073097;28;20422;-64
2024/03/29 11:25:57;;;;;;;0.70;0.70;;;17.50;82.40;;;;;;5072852;28;20413;-64
2024/03/29 11:28:34;;;;;;;0.63;0.50;;;17.20;57.00;;;;;;5072523;28;20430;-61
2024/03/29 11:31:07;;;;;;;1.70;0.80;;;17.30;59.00;;;;;;5072775;28;20851;-61
2024/03/29 11:33:42;;;;;;;0.97;0.57;;;17.50;58.90;;;;;;5072690;28;20840;-61
2024/03/29 11:36:11;;;;;;;0.60;0.60;;;17.90;55.60;;;;;;5072466;28;20448;-61
2024/03/29 11:38:37;;;;;;;0.40;0.40;;;18.20;55.40;;;;;;5072489;28;20418;-61
2024/03/29 11:41:03;;;;;;;0.83;0.60;;;18.30;56.80;;;;;;5072591;28;20426;-62
2024/03/29 11:43:31;;;;;;;0.50;0.50;;;18.70;55.10;;;;;;5072567;28;20471;-62
2024/03/29 11:45:58;;;;;;;0.93;0.40;;;19.00;53.70;;;;;;5072503;28;20822;-62
2024/03/29 11:48:26;;;;;;;1.43;0.70;;;19.20;54.70;;;;;;5072289;28;20419;-62
2024/03/29 11:50:52;;;;;;;0.40;0.40;;;19.40;52.70;;;;;;5072206;28;20489;-61
2024/03/29 11:53:19;;;;;;;0.50;0.40;;;19.60;50.10;;;;;;5072192;28;20964;-62
2024/03/29 11:55:47;;;;;;;0.87;0.70;;;19.80;70.30;;;;;;5072251;28;20450;-61
2024/03/29 11:58:13;;;;;;;0.80;0.80;;;19.50;46.80;;;;;;5072203;28;20445;-61
2024/03/29 12:00:40;;;;;;;0.40;0.40;;;19.50;47.60;;;;;;5071940;28;20414;-61
2024/03/29 12:03:06;;;;;;;0.40;0.40;;;19.50;47.80;;;;;;5072090;28;20732;-61
2024/03/29 12:05:32;;;;;;;0.40;0.40;;;19.30;68.60;;;;;;5071793;28;20448;-61
2024/03/29 12:07:59;;;;;;;0.63;0.63;;;19.30;46.40;;;;;;5071610;28;20413;-62
2024/03/29 12:10:29;;;;;;;0.70;0.40;;;19.10;45.50;;;;;;5071173;28;20457;-62
2024/03/29 12:13:00;;;;;;;0.60;0.43;;;18.70;45.70;;;;;;5066324;28;20932;-61
2024/03/29 12:15:28;;;;;;;0.40;0.40;;;18.50;46.10;;;;;;5049194;28;20423;-62
2024/03/29 12:17:59;;;;;;;0.40;0.40;;;18.40;46.20;;;;;;5049927;28;20466;-61
2024/03/29 12:20:27;;;;;;;0.40;0.40;;;18.40;45.70;;;;;;5051132;28;20449;-61
2024/03/29 12:22:53;;;;;;;0.40;0.40;;;18.30;46.00;;;;;;5052017;28;20501;-62
2024/03/29 12:25:21;;;;;;;0.60;0.40;;;18.40;46.70;;;;;;5051721;28;20454;-62
2024/03/29 12:27:52;;;;;;;0.57;0.47;;;18.40;47.30;;;;;;5051219;28;20200;-62
2024/03/29 12:30:19;;;;;;;0.70;0.50;;;18.20;45.80;;;;;;5051098;28;20819;-62
2024/03/29 12:32:46;;;;;;;0.53;0.53;;;17.90;45.30;;;;;;5051385;28;20411;-62
2024/03/29 12:35:13;;;;;;;0.47;0.47;;;17.70;45.70;;;;;;5051867;28;20422;-62
2024/03/29 12:37:56;;;;;;;0.40;0.40;;;17.50;45.70;;;;;;5050567;28;20444;-63
2024/03/29 12:40:23;;;;;;;0.50;0.50;;;17.30;46.10;;;;;;5051808;28;21038;-63
2024/03/29 12:42:50;;;;;;;0.60;0.50;;;17.20;45.80;;;;;;5051583;28;20496;-63
2024/03/29 12:45:21;;;;;;;0.43;0.40;;;17.30;46.90;;;;;;5051550;28;20446;-62
2024/03/29 12:47:48;;;;;;;0.40;0.40;;;17.40;46.40;;;;;;5051586;28;20978;-63
2024/03/29 12:50:23;;;;;;;0.40;0.40;;;17.40;46.00;;;;;;5051305;28;20453;-63
2024/03/29 12:52:49;;;;;;;0.60;0.40;;;17.50;46.30;;;;;;5051592;28;20405;-63
2024/03/29 12:55:17;;;;;;;0.43;0.43;;;17.60;47.00;;;;;;5051579;28;20411;-63
2024/03/29 12:57:44;;;;;;;0.80;0.70;;;17.60;46.80;;;;;;5051254;28;20228;-63